Time;durP1;ratioP1;P1;durP2;ratioP2;P2;SDS_P1;SDS_P2;PMS_P1;PMS_P2;Temp;Humidity;BMP_temperature;BMP_pressure;BME280_temperature;BME280_humidity;BME280_pressure;Samples;Min_cycle;Max_cycle;Signal;HPM_P1;HPM_P2
2022/11/14 00:02:33;;;;;;;5.00;4.80;;;18.10;72.50;;;;;;5051869;28;43526;-73
2022/11/14 00:05:19;;;;;;;4.87;4.77;;;18.10;72.90;;;;;;5054057;28;43390;-75
2022/11/14 00:08:06;;;;;;;5.47;5.27;;;18.10;73.10;;;;;;5054811;28;43412;-72
2022/11/14 00:10:52;;;;;;;4.70;4.60;;;18.20;72.80;;;;;;5053138;28;43390;-74
2022/11/14 00:13:39;;;;;;;4.57;4.40;;;18.20;72.50;;;;;;5053362;28;43593;-72
2022/11/14 00:16:26;;;;;;;4.90;4.70;;;18.20;72.40;;;;;;5048098;28;43444;-72
2022/11/14 00:19:14;;;;;;;4.90;4.70;;;18.10;72.40;;;;;;5053854;28;43536;-73
2022/11/14 00:22:00;;;;;;;5.00;4.80;;;18.10;72.90;;;;;;5052836;28;43380;-73
2022/11/14 00:24:47;;;;;;;4.80;4.60;;;18.10;72.60;;;;;;5052535;28;43688;-72
2022/11/14 00:27:34;;;;;;;5.03;4.87;;;18.10;72.50;;;;;;5054210;28;43348;-73
2022/11/14 00:30:20;;;;;;;4.53;4.43;;;18.10;72.60;;;;;;5051824;28;43448;-73
2022/11/14 00:33:06;;;;;;;4.73;4.63;;;18.10;72.70;;;;;;5052817;28;44021;-74
2022/11/14 00:35:57;;;;;;;4.70;4.60;;;18.00;73.20;;;;;;5052139;28;43645;-74
2022/11/14 00:38:43;;;;;;;5.00;4.83;;;18.10;73.00;;;;;;5051566;28;43380;-73
2022/11/14 00:41:29;;;;;;;4.93;4.73;;;18.10;72.80;;;;;;5051790;28;43323;-72
2022/11/14 00:44:16;;;;;;;5.03;4.83;;;18.10;72.90;;;;;;5051910;28;43456;-73
2022/11/14 00:47:02;;;;;;;4.87;4.67;;;18.00;72.70;;;;;;5054588;28;44356;-73
2022/11/14 00:49:49;;;;;;;5.30;5.10;;;18.00;73.20;;;;;;5046603;28;43538;-75
2022/11/14 00:52:37;;;;;;;5.13;4.90;;;18.10;73.30;;;;;;5048771;28;43380;-73
2022/11/14 00:55:23;;;;;;;4.97;4.83;;;18.20;72.90;;;;;;5051345;28;43478;-73
2022/11/14 00:58:09;;;;;;;5.23;5.00;;;18.30;72.20;;;;;;5046130;28;43617;-72
2022/11/14 01:00:56;;;;;;;4.70;4.60;;;18.40;71.80;;;;;;5050591;28;43389;-73
2022/11/14 01:03:42;;;;;;;4.60;4.50;;;18.50;71.10;;;;;;5044871;28;43341;-74
2022/11/14 01:06:29;;;;;;;4.77;4.57;;;18.40;71.60;;;;;;5047767;28;43342;-73
2022/11/14 01:09:16;;;;;;;4.47;4.37;;;18.30;71.70;;;;;;5050739;28;44008;-74
2022/11/14 01:12:03;;;;;;;4.50;4.40;;;18.30;72.00;;;;;;5053871;28;43384;-73
2022/11/14 01:14:49;;;;;;;4.67;4.47;;;18.20;72.50;;;;;;5048887;28;43536;-73
2022/11/14 01:17:35;;;;;;;4.60;4.50;;;18.20;72.70;;;;;;5052450;28;43384;-72
2022/11/14 01:20:22;;;;;;;4.80;4.60;;;18.20;72.50;;;;;;5046585;28;43914;-72
2022/11/14 01:23:08;;;;;;;4.73;4.60;;;18.10;72.50;;;;;;5051441;28;43597;-72
2022/11/14 01:26:00;;;;;;;4.47;4.33;;;18.10;72.50;;;;;;5050803;28;43362;-75
2022/11/14 01:28:46;;;;;;;4.73;4.60;;;18.10;72.90;;;;;;5050845;28;43454;-74
2022/11/14 01:31:33;;;;;;;4.80;4.60;;;18.10;73.20;;;;;;5051595;28;43668;-73
2022/11/14 01:34:19;;;;;;;4.97;4.77;;;18.20;72.80;;;;;;5045964;28;43440;-72
2022/11/14 01:37:06;;;;;;;4.30;4.17;;;18.20;72.30;;;;;;5050305;28;43379;-72
2022/11/14 01:39:52;;;;;;;4.87;4.63;;;18.20;72.20;;;;;;5053392;28;43372;-72
2022/11/14 01:42:40;;;;;;;4.80;4.60;;;18.20;72.30;;;;;;5050277;28;43694;-72
2022/11/14 01:45:52;;;;;;;4.77;4.57;;;18.20;72.60;;;;;;5053285;28;43340;-74
2022/11/14 01:48:40;;;;;;;4.90;4.70;;;18.20;72.40;;;;;;5047190;28;43402;-73
2022/11/14 01:51:28;;;;;;;4.37;4.27;;;18.20;72.40;;;;;;5046768;28;43464;-74
2022/11/14 01:54:16;;;;;;;4.67;4.47;;;18.10;72.40;;;;;;5046509;28;43664;-72
2022/11/14 01:57:03;;;;;;;5.20;5.00;;;18.10;72.60;;;;;;5050963;28;43291;-73
2022/11/14 01:59:52;;;;;;;4.50;4.40;;;18.10;73.20;;;;;;5045851;28;43437;-74
2022/11/14 02:02:39;;;;;;;4.70;4.60;;;18.10;72.90;;;;;;5051995;28;43394;-72
2022/11/14 02:05:25;;;;;;;4.77;4.57;;;18.10;73.50;;;;;;5046256;28;43606;-73
2022/11/14 02:08:13;;;;;;;4.90;4.80;;;18.00;72.80;;;;;;5053242;28;43352;-74
2022/11/14 02:10:59;;;;;;;4.50;4.40;;;18.00;72.80;;;;;;5053235;28;43324;-72
2022/11/14 02:13:46;;;;;;;5.00;4.80;;;18.00;73.30;;;;;;5052875;28;43780;-73
2022/11/14 02:16:34;;;;;;;4.30;4.20;;;18.00;73.20;;;;;;5053127;28;43490;-74
2022/11/14 02:19:20;;;;;;;4.70;4.60;;;18.20;72.80;;;;;;5043984;28;43403;-73
2022/11/14 02:22:08;;;;;;;4.67;4.57;;;18.30;72.40;;;;;;5049599;28;43483;-72
2022/11/14 02:24:54;;;;;;;4.03;3.93;;;18.30;72.20;;;;;;5049406;28;43435;-74
2022/11/14 02:27:40;;;;;;;4.70;4.60;;;18.20;72.20;;;;;;5046359;28;43489;-73
2022/11/14 02:30:27;;;;;;;4.57;4.47;;;18.20;72.50;;;;;;5050029;28;43424;-74
2022/11/14 02:33:13;;;;;;;4.40;4.30;;;18.20;72.30;;;;;;5050108;28;43337;-72
2022/11/14 02:36:00;;;;;;;3.90;3.80;;;18.20;72.20;;;;;;5046635;28;43374;-74
2022/11/14 02:38:48;;;;;;;4.10;4.00;;;18.10;72.20;;;;;;5049870;28;43550;-74
2022/11/14 02:41:36;;;;;;;4.20;4.10;;;18.10;72.40;;;;;;5044270;28;43297;-73
2022/11/14 02:44:22;;;;;;;4.23;4.13;;;18.10;72.90;;;;;;5046979;28;43458;-74
2022/11/14 02:47:09;;;;;;;4.30;4.20;;;18.10;72.90;;;;;;5050349;28;43547;-73
2022/11/14 02:49:55;;;;;;;4.00;3.90;;;18.10;72.80;;;;;;5051910;28;43646;-73
2022/11/14 02:52:41;;;;;;;4.17;4.07;;;18.10;72.80;;;;;;5047427;28;43435;-73
2022/11/14 02:55:29;;;;;;;4.33;4.23;;;18.00;72.70;;;;;;5049824;28;43314;-74
2022/11/14 02:58:15;;;;;;;4.40;4.30;;;18.00;73.00;;;;;;5046148;28;43730;-72
2022/11/14 03:01:02;;;;;;;4.10;4.00;;;18.00;73.30;;;;;;5048376;28;43657;-73
2022/11/14 03:04:06;;;;;;;4.30;4.20;;;18.10;73.00;;;;;;5046154;28;43337;-73
2022/11/14 03:06:53;;;;;;;4.57;4.47;;;18.30;72.40;;;;;;5050607;28;43470;-73
2022/11/14 03:09:39;;;;;;;3.90;3.80;;;18.40;71.90;;;;;;5045410;28;43464;-74
2022/11/14 03:12:27;;;;;;;4.40;4.30;;;18.40;71.60;;;;;;5049396;28;43648;-74
2022/11/14 03:15:13;;;;;;;3.70;3.60;;;18.40;71.60;;;;;;5045120;28;43372;-73
2022/11/14 03:17:59;;;;;;;3.90;3.80;;;18.30;71.70;;;;;;5048836;28;43403;-74
2022/11/14 03:20:46;;;;;;;4.07;3.97;;;18.20;71.90;;;;;;5049930;28;43408;-73
2022/11/14 03:23:32;;;;;;;4.13;3.93;;;18.20;72.30;;;;;;5049015;28;44117;-73
2022/11/14 03:26:19;;;;;;;4.17;4.07;;;18.10;72.70;;;;;;5048984;28;43482;-72
2022/11/14 03:29:07;;;;;;;4.30;4.10;;;18.10;72.60;;;;;;5049590;28;43390;-74
2022/11/14 03:31:53;;;;;;;3.73;3.63;;;18.10;72.50;;;;;;5051509;28;43397;-73
2022/11/14 03:34:40;;;;;;;3.77;3.67;;;18.10;72.60;;;;;;5046988;28;43521;-74
2022/11/14 03:37:26;;;;;;;4.17;4.07;;;18.00;72.70;;;;;;5043602;28;43406;-74
2022/11/14 03:40:12;;;;;;;4.20;4.10;;;18.00;73.90;;;;;;5051453;28;43810;-73
2022/11/14 03:42:59;;;;;;;4.00;3.90;;;18.10;73.10;;;;;;5048133;28;43440;-74
2022/11/14 03:45:47;;;;;;;4.07;3.97;;;18.10;72.70;;;;;;5046303;28;43676;-72
2022/11/14 03:48:34;;;;;;;4.00;3.90;;;18.20;72.50;;;;;;5050827;28;43380;-74
2022/11/14 03:51:20;;;;;;;4.10;4.00;;;18.10;72.30;;;;;;5049448;28;43419;-74
2022/11/14 03:54:07;;;;;;;4.00;3.90;;;18.10;72.50;;;;;;5047936;28;43453;-74
2022/11/14 03:56:54;;;;;;;4.20;4.10;;;18.10;72.90;;;;;;5048271;28;43622;-73
2022/11/14 03:59:40;;;;;;;3.70;3.60;;;18.10;73.30;;;;;;5051395;28;43411;-75
2022/11/14 04:02:28;;;;;;;4.13;4.03;;;18.10;72.60;;;;;;5050610;28;43411;-74
2022/11/14 04:05:15;;;;;;;3.80;3.70;;;18.00;72.50;;;;;;5052498;28;43502;-74
2022/11/14 04:08:01;;;;;;;4.10;4.00;;;18.00;72.70;;;;;;5048288;28;43487;-73
2022/11/14 04:10:48;;;;;;;4.03;3.93;;;18.00;73.30;;;;;;5049912;28;43355;-73
2022/11/14 04:13:34;;;;;;;4.30;4.20;;;18.00;73.00;;;;;;5044702;28;43492;-73
2022/11/14 04:16:21;;;;;;;3.93;3.83;;;18.10;72.60;;;;;;5046163;28;43397;-73
2022/11/14 04:19:08;;;;;;;4.00;3.90;;;18.20;73.10;;;;;;5051515;28;43493;-73
2022/11/14 04:21:55;;;;;;;4.23;4.13;;;18.20;72.20;;;;;;5054892;28;43416;-74
2022/11/14 04:24:41;;;;;;;3.97;3.87;;;18.20;72.60;;;;;;5052886;28;43266;-75
2022/11/14 04:27:28;;;;;;;4.07;3.97;;;18.20;72.50;;;;;;5054914;28;43409;-74
2022/11/14 04:30:14;;;;;;;3.60;3.50;;;18.20;72.40;;;;;;5047860;28;43645;-73
2022/11/14 04:33:01;;;;;;;3.63;3.53;;;18.10;72.30;;;;;;5052324;28;43460;-72
2022/11/14 04:35:49;;;;;;;3.80;3.70;;;18.10;72.40;;;;;;5046108;28;43483;-74
2022/11/14 04:38:38;;;;;;;3.90;3.80;;;18.00;72.50;;;;;;5056409;28;43345;-74
2022/11/14 04:41:24;;;;;;;3.80;3.70;;;18.00;73.00;;;;;;5053368;28;43501;-73
2022/11/14 04:44:11;;;;;;;3.60;3.50;;;18.00;72.80;;;;;;5053713;28;43496;-76
2022/11/14 04:46:57;;;;;;;3.23;3.20;;;18.00;72.70;;;;;;5055717;28;43982;-74
2022/11/14 04:49:44;;;;;;;4.10;4.00;;;18.00;72.80;;;;;;5046993;28;43997;-72
2022/11/14 04:52:32;;;;;;;3.90;3.80;;;17.90;72.80;;;;;;5050073;28;43672;-73
2022/11/14 04:55:18;;;;;;;3.83;3.73;;;17.90;73.40;;;;;;5052717;28;43404;-74
2022/11/14 04:58:04;;;;;;;3.80;3.70;;;18.00;73.10;;;;;;5050376;28;43431;-74
2022/11/14 05:00:51;;;;;;;4.23;4.07;;;18.10;72.70;;;;;;5054189;28;43779;-75
2022/11/14 05:03:37;;;;;;;3.50;3.40;;;18.20;72.30;;;;;;5054622;28;43505;-75
2022/11/14 05:06:24;;;;;;;3.77;3.67;;;18.20;72.20;;;;;;5052436;28;44059;-74
2022/11/14 05:09:11;;;;;;;3.80;3.70;;;18.20;72.50;;;;;;5056258;28;44017;-73
2022/11/14 05:11:58;;;;;;;3.77;3.67;;;18.20;72.50;;;;;;5047761;28;43790;-73
2022/11/14 05:14:44;;;;;;;3.73;3.63;;;18.10;72.30;;;;;;5053012;28;43665;-74
2022/11/14 05:17:31;;;;;;;3.70;3.60;;;18.10;72.40;;;;;;5052683;28;43527;-73
2022/11/14 05:20:17;;;;;;;3.50;3.40;;;18.10;72.50;;;;;;5046239;28;43515;-73
2022/11/14 05:23:04;;;;;;;3.80;3.70;;;18.00;73.00;;;;;;5052771;28;43386;-73
2022/11/14 05:26:01;;;;;;;3.90;3.80;;;17.90;72.90;;;;;;5051592;28;43533;-73
2022/11/14 05:28:47;;;;;;;3.60;3.50;;;18.00;72.90;;;;;;5048280;28;43380;-75
2022/11/14 05:31:33;;;;;;;3.50;3.40;;;17.90;72.90;;;;;;5053155;28;43376;-72
2022/11/14 05:34:20;;;;;;;3.53;3.43;;;17.90;72.90;;;;;;5047752;28;43345;-73
2022/11/14 05:37:07;;;;;;;3.60;3.50;;;17.90;73.40;;;;;;5051537;28;43497;-73
2022/11/14 05:39:53;;;;;;;3.70;3.60;;;17.90;73.50;;;;;;5054380;28;43443;-76
2022/11/14 05:42:41;;;;;;;3.60;3.50;;;18.00;73.00;;;;;;5045663;28;43817;-74
2022/11/14 05:45:27;;;;;;;3.60;3.50;;;18.10;72.70;;;;;;5051541;28;43628;-73
2022/11/14 05:48:14;;;;;;;3.40;3.30;;;18.10;72.40;;;;;;5041503;28;43669;-73
2022/11/14 05:51:01;;;;;;;3.37;3.27;;;18.10;72.40;;;;;;5048805;28;43466;-72
2022/11/14 05:53:47;;;;;;;3.40;3.30;;;18.10;72.90;;;;;;5049841;28;43436;-74
2022/11/14 05:56:34;;;;;;;3.00;3.00;;;18.10;72.70;;;;;;5050335;28;43443;-73
2022/11/14 05:59:22;;;;;;;3.50;3.40;;;18.10;72.50;;;;;;5049321;28;43668;-73
2022/11/14 06:02:08;;;;;;;3.43;3.33;;;18.10;72.60;;;;;;5051750;28;43336;-75
2022/11/14 06:04:55;;;;;;;3.33;3.23;;;18.00;72.60;;;;;;5052715;28;43934;-73
2022/11/14 06:07:41;;;;;;;3.40;3.30;;;18.00;73.10;;;;;;5050451;28;43455;-73
2022/11/14 06:10:28;;;;;;;3.13;3.03;;;18.00;72.80;;;;;;5048230;28;43541;-72
2022/11/14 06:13:14;;;;;;;3.20;3.10;;;18.00;72.60;;;;;;5048228;28;43399;-73
2022/11/14 06:16:02;;;;;;;3.37;3.27;;;18.00;72.60;;;;;;5053081;28;43388;-75
2022/11/14 06:18:49;;;;;;;3.43;3.33;;;17.90;72.50;;;;;;5050323;28;43380;-73
2022/11/14 06:21:35;;;;;;;3.60;3.50;;;17.90;72.70;;;;;;5048705;28;43530;-74
2022/11/14 06:24:22;;;;;;;3.33;3.23;;;18.00;73.30;;;;;;5045210;28;43457;-74
2022/11/14 06:27:08;;;;;;;3.60;3.50;;;18.10;72.90;;;;;;5051523;28;43408;-74
2022/11/14 06:29:55;;;;;;;3.07;3.07;;;18.20;72.30;;;;;;5052389;28;43368;-74
2022/11/14 06:32:42;;;;;;;3.43;3.23;;;18.40;71.90;;;;;;5049791;28;43689;-73
2022/11/14 06:35:31;;;;;;;3.23;3.13;;;18.40;71.60;;;;;;5051218;28;43351;-72
2022/11/14 06:38:18;;;;;;;3.50;3.40;;;18.30;71.10;;;;;;5046276;28;43382;-73
2022/11/14 06:41:06;;;;;;;3.20;3.13;;;18.30;71.40;;;;;;5051666;28;43543;-73
2022/11/14 06:43:53;;;;;;;3.20;3.13;;;18.20;71.60;;;;;;5051126;28;43501;-74
2022/11/14 06:46:39;;;;;;;3.37;3.27;;;18.10;71.90;;;;;;5047360;28;43392;-74
2022/11/14 06:49:27;;;;;;;3.20;3.10;;;18.10;72.60;;;;;;5053888;28;43661;-72
2022/11/14 06:52:14;;;;;;;3.00;3.00;;;18.10;72.20;;;;;;5054109;28;43467;-73
2022/11/14 06:55:00;;;;;;;3.23;3.20;;;18.00;72.30;;;;;;5051313;28;43485;-73
2022/11/14 06:57:47;;;;;;;3.30;3.20;;;18.00;72.40;;;;;;5054081;28;43460;-73
2022/11/14 07:00:33;;;;;;;3.60;3.50;;;18.00;72.50;;;;;;5046252;28;43357;-74
2022/11/14 07:03:20;;;;;;;3.57;3.47;;;17.90;73.00;;;;;;5051982;28;43438;-73
2022/11/14 07:06:08;;;;;;;3.00;3.00;;;18.00;72.60;;;;;;5054534;28;43793;-74
2022/11/14 07:08:55;;;;;;;3.03;2.97;;;17.90;72.50;;;;;;5046443;28;43479;-74
2022/11/14 07:11:44;;;;;;;3.27;3.20;;;17.90;72.60;;;;;;5053433;28;43381;-74
2022/11/14 07:14:30;;;;;;;2.93;2.93;;;17.90;72.60;;;;;;5046796;28;43365;-73
2022/11/14 07:17:17;;;;;;;3.50;3.40;;;17.90;73.20;;;;;;5052131;28;43513;-73
2022/11/14 07:20:04;;;;;;;3.23;3.13;;;17.90;73.20;;;;;;5054129;28;43889;-73
2022/11/14 07:22:51;;;;;;;3.53;3.43;;;18.10;72.90;;;;;;5046836;28;43448;-73
2022/11/14 07:25:38;;;;;;;3.30;3.20;;;18.30;72.40;;;;;;5049655;28;43420;-75
2022/11/14 07:28:24;;;;;;;3.33;3.23;;;18.40;71.90;;;;;;5053570;28;43488;-74
2022/11/14 07:31:12;;;;;;;3.30;3.20;;;18.30;71.30;;;;;;5053902;28;43301;-74
2022/11/14 07:33:59;;;;;;;3.07;3.03;;;18.30;71.40;;;;;;5051586;28;43423;-73
2022/11/14 07:36:45;;;;;;;3.00;2.90;;;18.20;71.60;;;;;;5048848;28;43428;-74
2022/11/14 07:39:33;;;;;;;3.20;3.10;;;18.20;71.90;;;;;;5053805;28;43536;-74
2022/11/14 07:42:19;;;;;;;3.07;2.97;;;18.10;72.30;;;;;;5052062;28;43441;-73
2022/11/14 07:45:07;;;;;;;3.47;3.37;;;18.10;72.50;;;;;;5053107;28;44025;-75
2022/11/14 07:47:57;;;;;;;3.10;3.00;;;18.10;72.50;;;;;;5055931;28;44460;-74
2022/11/14 07:50:44;;;;;;;2.83;2.83;;;18.10;72.40;;;;;;5044918;28;43482;-73
2022/11/14 07:53:30;;;;;;;3.17;3.07;;;18.00;72.40;;;;;;5056696;28;43712;-73
2022/11/14 07:56:19;;;;;;;3.23;3.13;;;18.00;72.50;;;;;;5054915;28;43412;-73
2022/11/14 07:59:05;;;;;;;3.40;3.30;;;18.00;73.00;;;;;;5054725;28;43401;-72
2022/11/14 08:01:52;;;;;;;3.33;3.27;;;18.00;72.70;;;;;;5055768;28;43580;-73
2022/11/14 08:04:38;;;;;;;3.13;3.03;;;18.00;72.60;;;;;;5057565;28;43346;-73
2022/11/14 08:07:25;;;;;;;3.27;3.17;;;17.90;72.50;;;;;;5053240;28;44161;-73
2022/11/14 08:10:13;;;;;;;3.13;3.13;;;17.90;72.60;;;;;;5057031;28;43444;-74
2022/11/14 08:13:01;;;;;;;2.87;2.87;;;17.90;73.30;;;;;;5052696;28;43602;-73
2022/11/14 08:16:09;;;;;;;3.40;3.20;;;18.00;73.10;;;;;;5054480;28;43383;-74
2022/11/14 08:19:01;;;;;;;2.80;2.80;;;18.20;72.60;;;;;;5054726;28;43506;-73
2022/11/14 08:21:48;;;;;;;3.27;3.17;;;18.30;72.00;;;;;;5053651;28;44043;-74
2022/11/14 08:24:34;;;;;;;2.97;2.97;;;18.40;71.70;;;;;;5053015;28;43502;-73
2022/11/14 08:27:20;;;;;;;3.13;3.03;;;18.30;71.40;;;;;;5054032;28;43443;-72
2022/11/14 08:30:09;;;;;;;3.00;2.90;;;18.30;71.60;;;;;;5054221;28;43401;-75
2022/11/14 08:32:56;;;;;;;3.00;2.90;;;18.20;71.70;;;;;;5057101;28;43408;-73
2022/11/14 08:35:43;;;;;;;3.40;3.30;;;18.10;72.00;;;;;;5054510;28;43561;-74
2022/11/14 08:38:31;;;;;;;3.30;3.20;;;18.10;72.60;;;;;;5055410;28;43453;-74
2022/11/14 08:41:18;;;;;;;3.20;3.20;;;18.10;72.40;;;;;;5054192;28;43477;-73
2022/11/14 08:44:05;;;;;;;2.57;2.57;;;18.10;72.50;;;;;;5056705;28;43518;-73
2022/11/14 08:46:56;;;;;;;2.70;2.70;;;18.10;72.50;;;;;;5052303;28;43658;-72
2022/11/14 08:49:42;;;;;;;3.10;3.00;;;18.00;72.60;;;;;;5056419;28;43431;-73
2022/11/14 08:52:28;;;;;;;3.50;3.40;;;18.00;73.00;;;;;;5053798;28;43509;-72
2022/11/14 08:55:15;;;;;;;3.60;3.30;;;18.00;72.70;;;;;;5052954;28;43423;-74
2022/11/14 08:58:01;;;;;;;3.10;3.00;;;18.00;72.60;;;;;;5052976;28;43494;-74
2022/11/14 09:00:48;;;;;;;3.37;3.27;;;18.00;72.40;;;;;;5052090;28;43399;-75
2022/11/14 09:03:36;;;;;;;3.57;3.33;;;18.00;72.40;;;;;;5052675;28;43415;-74
2022/11/14 09:06:23;;;;;;;3.47;3.10;;;17.90;72.60;;;;;;5055935;28;43404;-74
2022/11/14 09:09:09;;;;;;;3.70;3.40;;;18.00;73.00;;;;;;5052258;28;43609;-73
2022/11/14 09:11:56;;;;;;;3.30;3.20;;;18.10;72.70;;;;;;5052996;28;43444;-73
2022/11/14 09:14:42;;;;;;;3.77;3.47;;;18.20;72.20;;;;;;5051648;28;43441;-74
2022/11/14 09:17:29;;;;;;;3.20;3.00;;;18.30;71.80;;;;;;5053340;28;43463;-72
2022/11/14 09:20:17;;;;;;;3.70;3.50;;;18.30;71.70;;;;;;5051170;28;43484;-73
2022/11/14 09:23:04;;;;;;;3.70;3.60;;;18.20;72.20;;;;;;5052146;28;43758;-73
2022/11/14 09:25:51;;;;;;;3.60;3.40;;;18.20;71.90;;;;;;5056471;28;43497;-73
2022/11/14 09:28:37;;;;;;;3.53;3.43;;;18.20;71.90;;;;;;5052934;28;43863;-73
2022/11/14 09:31:24;;;;;;;3.10;3.00;;;18.20;71.90;;;;;;5051622;28;43753;-75
2022/11/14 09:34:11;;;;;;;4.10;3.70;;;18.10;72.10;;;;;;5047605;28;43388;-73
2022/11/14 09:36:59;;;;;;;3.87;3.67;;;18.10;72.70;;;;;;5049798;28;43360;-74
2022/11/14 09:39:45;;;;;;;3.30;3.10;;;18.00;72.50;;;;;;5054739;28;43403;-72
2022/11/14 09:42:40;;;;;;;3.50;3.30;;;18.00;72.30;;;;;;5052612;28;43578;-74
2022/11/14 09:45:26;;;;;;;3.80;3.47;;;18.00;72.40;;;;;;5055745;28;43341;-75
2022/11/14 09:48:14;;;;;;;3.60;3.50;;;18.00;72.50;;;;;;5052806;28;43998;-73
2022/11/14 09:51:06;;;;;;;3.80;3.50;;;17.90;72.80;;;;;;5052618;28;43478;-73
2022/11/14 09:53:56;;;;;;;3.60;3.50;;;18.00;73.10;;;;;;5052078;28;43644;-76
2022/11/14 09:56:42;;;;;;;3.33;3.23;;;18.10;72.70;;;;;;5051964;28;43974;-73
2022/11/14 09:59:29;;;;;;;3.50;3.40;;;18.20;72.30;;;;;;5052606;28;43399;-74
2022/11/14 10:02:36;;;;;;;3.63;3.53;;;18.20;71.90;;;;;;5049622;28;43532;-73
2022/11/14 10:05:36;;;;;;;3.40;3.30;;;18.20;72.20;;;;;;5052001;28;43657;-72
2022/11/14 10:08:31;;;;;;;3.47;3.30;;;18.20;72.40;;;;;;5052780;28;43316;-73
2022/11/14 10:11:22;;;;;;;3.20;3.10;;;18.10;72.10;;;;;;5055195;28;43356;-74
2022/11/14 10:14:20;;;;;;;3.47;3.37;;;18.10;72.10;;;;;;5052832;28;43487;-75
2022/11/14 10:17:14;;;;;;;6.20;3.30;;;18.00;72.20;;;;;;5046918;28;43594;-72
2022/11/14 10:20:03;;;;;;;3.13;3.03;;;18.00;72.60;;;;;;5051620;28;43372;-73
2022/11/14 10:22:58;;;;;;;3.20;3.00;;;18.00;72.90;;;;;;5046986;28;43469;-73
2022/11/14 10:25:52;;;;;;;3.47;3.27;;;18.00;72.70;;;;;;5054741;28;43394;-73
2022/11/14 10:28:57;;;;;;;3.70;3.60;;;18.00;72.60;;;;;;5052649;28;43497;-73
2022/11/14 10:31:46;;;;;;;3.57;3.47;;;17.90;72.70;;;;;;5052630;28;43423;-73
2022/11/14 10:34:34;;;;;;;3.27;3.17;;;17.90;72.70;;;;;;5049755;28;43371;-74
2022/11/14 10:37:24;;;;;;;3.47;3.33;;;17.90;73.20;;;;;;5052582;28;43290;-74
2022/11/14 10:40:15;;;;;;;3.47;3.37;;;18.00;73.00;;;;;;5047346;28;43865;-72
2022/11/14 10:43:05;;;;;;;3.23;3.13;;;18.20;72.50;;;;;;5052909;28;43340;-73
2022/11/14 10:45:56;;;;;;;3.43;3.23;;;18.30;71.90;;;;;;5051942;28;44105;-74
2022/11/14 10:48:45;;;;;;;3.47;3.33;;;18.40;71.60;;;;;;5052822;28;43358;-74
2022/11/14 10:51:34;;;;;;;3.20;3.10;;;18.40;71.40;;;;;;5045972;28;44172;-74
2022/11/14 10:54:22;;;;;;;3.20;3.10;;;18.30;71.40;;;;;;5051889;28;43289;-73
2022/11/14 10:57:14;;;;;;;3.03;2.97;;;18.20;71.70;;;;;;5051808;28;43337;-73
2022/11/14 11:00:01;;;;;;;3.50;3.40;;;18.20;71.90;;;;;;5049174;28;43361;-74
2022/11/14 11:02:51;;;;;;;3.70;3.50;;;18.10;72.50;;;;;;5054229;28;43535;-73
2022/11/14 11:05:45;;;;;;;4.57;3.63;;;18.10;72.20;;;;;;5050042;28;44185;-74
2022/11/14 11:11:40;;;;;;;4.73;4.10;;;18.00;72.30;;;;;;5054249;28;43413;-74
2022/11/14 11:14:27;;;;;;;4.60;4.30;;;18.00;72.40;;;;;;5052988;28;43522;-74
2022/11/14 11:17:21;;;;;;;4.70;4.30;;;18.00;73.00;;;;;;5051198;28;43448;-73
2022/11/14 11:20:25;;;;;;;4.80;4.50;;;18.00;72.70;;;;;;5052222;28;43450;-75
2022/11/14 11:23:18;;;;;;;5.67;4.30;;;18.00;72.70;;;;;;5050177;28;43435;-74
2022/11/14 11:26:07;;;;;;;5.00;4.60;;;18.00;72.70;;;;;;5051935;28;43664;-74
2022/11/14 11:29:14;;;;;;;6.00;4.80;;;17.90;72.70;;;;;;5055714;28;43375;-74
2022/11/14 11:32:00;;;;;;;5.07;4.57;;;18.00;73.30;;;;;;5053389;28;43554;-72
2022/11/14 11:34:47;;;;;;;5.97;5.03;;;18.10;73.10;;;;;;5054402;28;43352;-73
2022/11/14 11:37:38;;;;;;;6.23;5.23;;;18.20;72.50;;;;;;5049356;28;43471;-73
2022/11/14 11:40:27;;;;;;;6.90;5.40;;;18.20;72.10;;;;;;5054865;28;43439;-72
2022/11/14 11:43:16;;;;;;;7.57;5.70;;;18.20;72.10;;;;;;5047730;28;43467;-74
2022/11/14 11:46:26;;;;;;;7.67;5.43;;;18.20;73.40;;;;;;5057313;28;43380;-74
2022/11/14 11:49:15;;;;;;;5.83;5.30;;;18.20;72.30;;;;;;5050051;28;43504;-72
2022/11/14 11:52:03;;;;;;;5.63;4.97;;;18.10;72.20;;;;;;5054858;28;43998;-73
2022/11/14 11:54:55;;;;;;;5.93;5.33;;;18.10;72.30;;;;;;5049209;28;43346;-72
2022/11/14 11:57:44;;;;;;;5.40;4.90;;;18.00;72.50;;;;;;5053610;28;43377;-72
2022/11/14 12:00:31;;;;;;;5.63;5.10;;;18.00;72.90;;;;;;5056174;28;43478;-75
2022/11/14 12:03:17;;;;;;;6.97;5.30;;;18.00;73.00;;;;;;5054275;28;43963;-73
2022/11/14 12:06:12;;;;;;;5.83;5.33;;;18.10;72.70;;;;;;5053422;28;43396;-73
2022/11/14 12:09:06;;;;;;;5.07;4.53;;;18.10;72.40;;;;;;5049505;28;43372;-74
2022/11/14 12:11:55;;;;;;;9.90;4.93;;;18.10;72.40;;;;;;5056981;28;43543;-73
2022/11/14 12:14:48;;;;;;;6.20;5.13;;;18.10;72.60;;;;;;5052102;28;43421;-74
2022/11/14 12:17:53;;;;;;;5.27;4.83;;;18.00;72.90;;;;;;5055081;28;43931;-75
2022/11/14 12:20:57;;;;;;;5.30;4.80;;;18.00;72.70;;;;;;5053618;28;43401;-73
2022/11/14 12:24:13;;;;;;;4.87;4.57;;;18.00;72.60;;;;;;5049098;28;43481;-74
2022/11/14 12:27:14;;;;;;;4.90;4.50;;;18.00;72.70;;;;;;5050313;28;43471;-75
2022/11/14 12:30:09;;;;;;;4.93;4.40;;;17.90;72.90;;;;;;5053753;28;43312;-73
2022/11/14 12:32:57;;;;;;;4.77;4.40;;;17.90;73.20;;;;;;5055486;28;43320;-74
2022/11/14 12:35:48;;;;;;;5.70;5.20;;;18.00;73.00;;;;;;5053174;28;43783;-72
2022/11/14 12:38:36;;;;;;;5.10;4.70;;;18.10;72.50;;;;;;5050231;28;43398;-74
2022/11/14 12:41:24;;;;;;;5.37;4.97;;;18.20;72.20;;;;;;5054517;28;43388;-72
2022/11/14 12:44:31;;;;;;;5.77;5.27;;;18.20;72.20;;;;;;5049941;28;43432;-75
2022/11/14 12:47:19;;;;;;;5.20;4.77;;;18.20;72.70;;;;;;5053375;28;43679;-73
2022/11/14 12:50:27;;;;;;;4.83;4.43;;;18.20;72.50;;;;;;5048783;28;43421;-74
2022/11/14 12:53:43;;;;;;;5.17;4.70;;;18.10;72.30;;;;;;5048034;28;43315;-73
2022/11/14 12:57:00;;;;;;;4.40;4.10;;;18.10;72.50;;;;;;5048717;28;43384;-73
2022/11/14 12:59:53;;;;;;;5.03;4.70;;;18.00;72.60;;;;;;5042114;28;43497;-73
2022/11/14 13:03:18;;;;;;;5.03;4.63;;;18.00;73.10;;;;;;5051708;28;43396;-73
2022/11/14 13:06:06;;;;;;;5.17;4.67;;;18.00;72.90;;;;;;5054668;28;43412;-73
2022/11/14 13:09:19;;;;;;;4.53;4.23;;;18.00;72.80;;;;;;5052731;28;43451;-73
2022/11/14 13:22:07;;;;;;;5.00;4.70;;;18.10;73.10;;;;;;5052851;28;43916;-73
2022/11/14 13:25:16;;;;;;;5.17;4.77;;;18.10;72.50;;;;;;5053358;28;43501;-74
2022/11/14 13:28:36;;;;;;;4.63;4.33;;;18.10;72.30;;;;;;5052082;28;43450;-74
2022/11/14 13:31:24;;;;;;;4.50;4.20;;;18.10;72.70;;;;;;5049463;28;44060;-72
2022/11/14 13:34:31;;;;;;;4.37;4.13;;;18.10;72.70;;;;;;5053271;28;43491;-73
2022/11/14 13:37:27;;;;;;;4.40;4.10;;;18.10;72.60;;;;;;5051527;28;43494;-74
2022/11/14 13:40:14;;;;;;;4.10;3.90;;;18.10;72.60;;;;;;5051356;28;43353;-73
2022/11/14 13:43:02;;;;;;;4.23;4.03;;;18.00;72.70;;;;;;5051528;28;43482;-74
2022/11/14 13:45:52;;;;;;;4.60;4.40;;;18.00;73.10;;;;;;5053259;28;43445;-73
2022/11/14 13:48:56;;;;;;;4.17;3.97;;;17.90;73.00;;;;;;5052419;28;43954;-73
2022/11/14 13:51:43;;;;;;;4.20;4.00;;;17.90;72.90;;;;;;5048022;28;43381;-73
2022/11/14 13:54:30;;;;;;;4.63;4.33;;;17.90;72.90;;;;;;5051432;28;43926;-73
2022/11/14 13:57:22;;;;;;;4.30;4.10;;;17.90;72.90;;;;;;5052853;28;43399;-74
2022/11/14 14:00:12;;;;;;;4.70;4.40;;;17.90;73.40;;;;;;5051896;28;43531;-73
2022/11/14 14:03:18;;;;;;;4.63;4.20;;;17.90;73.40;;;;;;5046695;28;43408;-71
2022/11/14 14:06:20;;;;;;;4.03;3.83;;;18.10;73.00;;;;;;5053153;28;43388;-73
2022/11/14 14:09:12;;;;;;;3.87;3.67;;;18.20;72.60;;;;;;5050476;28;43383;-73
2022/11/14 14:12:07;;;;;;;4.20;4.00;;;18.20;72.40;;;;;;5047402;28;43513;-73
2022/11/14 14:15:01;;;;;;;4.23;3.93;;;18.10;72.80;;;;;;5051978;28;43368;-73
2022/11/14 14:17:53;;;;;;;3.60;3.50;;;18.10;72.70;;;;;;5052245;28;43367;-72
2022/11/14 14:20:43;;;;;;;3.90;3.70;;;18.10;72.60;;;;;;5053430;28;43833;-73
2022/11/14 14:23:36;;;;;;;3.67;3.57;;;18.00;72.60;;;;;;5051954;28;43614;-75
2022/11/14 14:26:28;;;;;;;3.70;3.60;;;18.00;72.80;;;;;;5049184;28;43516;-72
2022/11/14 14:29:21;;;;;;;4.10;3.90;;;17.90;73.00;;;;;;5053387;28;43380;-74
2022/11/14 14:32:11;;;;;;;4.00;3.80;;;17.90;73.20;;;;;;5051966;28;43446;-76
2022/11/14 14:34:59;;;;;;;4.13;3.93;;;17.90;73.80;;;;;;5053295;28;43583;-73
2022/11/14 14:37:50;;;;;;;3.63;3.53;;;17.90;73.00;;;;;;5047644;28;43337;-73
2022/11/14 14:40:39;;;;;;;3.50;3.40;;;17.90;73.10;;;;;;5051649;28;43781;-73
2022/11/14 14:43:29;;;;;;;3.70;3.60;;;17.90;73.40;;;;;;5048699;28;43406;-73
2022/11/14 14:46:15;;;;;;;3.60;3.50;;;17.90;73.50;;;;;;5054107;28;43679;-73
2022/11/14 14:49:02;;;;;;;3.80;3.70;;;18.10;73.30;;;;;;5047927;28;43456;-74
2022/11/14 14:51:49;;;;;;;4.03;3.83;;;18.20;72.70;;;;;;5043080;28;43428;-73
2022/11/14 14:54:42;;;;;;;3.67;3.57;;;18.30;72.20;;;;;;5047362;28;43289;-74
2022/11/14 14:57:30;;;;;;;3.83;3.73;;;18.30;71.90;;;;;;5053117;28;43558;-73